Haines Airport Haines US
ICAO: PAHN
IATA:
Category: Medium
Scheduled Services:

Elevation: 15 ft
TransAlt. 18000 ft.

Airport Communications:
ASOS:135.75
ANCHORAGE CNTR:132.3
CTAF:122.9
JUNEAU RDO:122.6
TWEB:24.5

PAHN Zoom In..

Runways:

(A) RW 08 length 4000 ft width 100 ft
---- / hdg 86

(B) RW 26 length 4000 ft width 100 ft
---- / hdg 266

Location; PAHN
Day. 26 / Time. 13.54 Zulu
* Altimeter: 29.73
* Temperature: 08° c. 46.4°f.
* Wind from: 090° Speed 03 kn.
Dewpoint: 07° c.
Visibility: 8 Statute Miles.
Clouds: Scattered 1800 ft.
Clouds: Broken 2900 ft.
Clouds: Overcast 4200 ft.
Conditions: Light Rain.

PAHN 261354Z AUTO 09003KT 8SM -RA SCT018 BKN029 OVC042 08/07 A2973 RMK AO2 SLP069 P0001 T00780067 TSNO


Wind From 090°
Speed 03 kn.

 
 
jpsmedia.com for Web Design SOUNDCLOUD worldairports.se 2018   terms of use